CCA1301 ZBAA-ZGGG
Flight info
| Callsign | CCA1301 |
|---|---|
| Flight time | N/A |
| Altitude | 38100 |
| Route | RUSDO6J RUSDO W45 LYA/K0904S1130 W45 ML/K0898S1160 W45 NUPTI/K0896S1190 W45 VESUX/K0906S1160 W45 IKAVO IKAVO8 |
| Aircraft | B77W/H-SDE1E2E3FGHIJ2J3J4J5M1RWXY/LB1D1 |
Departure
| Time | 2026-05-01 13:30 |
|---|---|
| Airport | Beijing Capital International Airport (ZBAA) |
Arrival
| Time | N/A |
|---|---|
| Airport | Guangzhou Baiyun International Airport (ZGGG) |
| Time | Latitude | Longitude | Altitude | Speed | Heading |
|---|---|---|---|---|---|
| 2026-05-01 12:39 | 40.07079 | 116.60510 | 129 ft | 0 kts | 83° |
| 2026-05-01 13:17 | 40.07077 | 116.60484 | 129 ft | 2 kts | 83° |
| 2026-05-01 13:17 | 40.07074 | 116.60465 | 129 ft | 2 kts | 70° |
| 2026-05-01 13:18 | 40.07059 | 116.60432 | 129 ft | 2 kts | 46° |
| 2026-05-01 13:18 | 40.07048 | 116.60419 | 129 ft | 2 kts | 35° |
| 2026-05-01 13:18 | 40.07035 | 116.60409 | 129 ft | 2 kts | 24° |
| 2026-05-01 13:18 | 40.07021 | 116.60403 | 129 ft | 2 kts | 12° |
| 2026-05-01 13:19 | 40.07006 | 116.60400 | 129 ft | 2 kts | 1° |
| 2026-05-01 13:19 | 40.06996 | 116.60401 | 129 ft | 1 kts | 353° |
| 2026-05-01 13:19 | 40.06995 | 116.60401 | 129 ft | 0 kts | 353° |
| 2026-05-01 13:21 | 40.07024 | 116.60397 | 129 ft | 8 kts | 354° |
| 2026-05-01 13:21 | 40.07100 | 116.60387 | 129 ft | 11 kts | 354° |
| 2026-05-01 13:21 | 40.07177 | 116.60375 | 129 ft | 11 kts | 353° |
| 2026-05-01 13:22 | 40.07246 | 116.60364 | 129 ft | 6 kts | 353° |
| 2026-05-01 13:22 | 40.07294 | 116.60353 | 129 ft | 8 kts | 342° |
| 2026-05-01 13:22 | 40.07330 | 116.60281 | 129 ft | 12 kts | 275° |
| 2026-05-01 13:22 | 40.07325 | 116.60195 | 129 ft | 7 kts | 263° |
| 2026-05-01 13:23 | 40.07319 | 116.60119 | 129 ft | 10 kts | 264° |
| 2026-05-01 13:23 | 40.07324 | 116.60014 | 129 ft | 13 kts | 299° |
| 2026-05-01 13:23 | 40.07409 | 116.59956 | 129 ft | 15 kts | 352° |
| 2026-05-01 13:23 | 40.07475 | 116.59946 | 129 ft | 9 kts | 353° |
| 2026-05-01 13:24 | 40.07553 | 116.59933 | 129 ft | 13 kts | 354° |
| 2026-05-01 13:24 | 40.07660 | 116.59917 | 129 ft | 16 kts | 353° |
| 2026-05-01 13:24 | 40.07761 | 116.59901 | 129 ft | 13 kts | 353° |
| 2026-05-01 13:25 | 40.07986 | 116.59866 | 129 ft | 18 kts | 355° |
| 2026-05-01 13:25 | 40.08084 | 116.59850 | 129 ft | 12 kts | 353° |
| 2026-05-01 13:25 | 40.08172 | 116.59837 | 129 ft | 14 kts | 353° |
| 2026-05-01 13:25 | 40.08280 | 116.59820 | 129 ft | 15 kts | 354° |
| 2026-05-01 13:26 | 40.08385 | 116.59804 | 129 ft | 14 kts | 353° |
| 2026-05-01 13:26 | 40.08484 | 116.59788 | 129 ft | 13 kts | 353° |
| 2026-05-01 13:26 | 40.08574 | 116.59773 | 129 ft | 13 kts | 353° |
| 2026-05-01 13:26 | 40.08665 | 116.59759 | 129 ft | 13 kts | 354° |
| 2026-05-01 13:27 | 40.08756 | 116.59746 | 129 ft | 12 kts | 353° |
| 2026-05-01 13:27 | 40.08846 | 116.59726 | 129 ft | 13 kts | 340° |
| 2026-05-01 13:27 | 40.08885 | 116.59663 | 130 ft | 0 kts | 270° |
| 2026-05-01 13:28 | 40.08885 | 116.59657 | 130 ft | 3 kts | 270° |
| 2026-05-01 13:28 | 40.08881 | 116.59585 | 130 ft | 11 kts | 260° |
| 2026-05-01 13:29 | 40.08754 | 116.59510 | 129 ft | 0 kts | 174° |
| 2026-05-01 13:29 | 40.08400 | 116.59566 | 130 ft | 87 kts | 173° |
| 2026-05-01 13:30 | 40.03841 | 116.60249 | 2122 ft | 189 kts | 172° |
| 2026-05-01 13:31 | 40.00919 | 116.60748 | 2897 ft | 235 kts | 171° |
| 2026-05-01 13:31 | 39.95642 | 116.61562 | 5295 ft | 260 kts | 175° |
| 2026-05-01 13:32 | 39.92054 | 116.62121 | 7059 ft | 265 kts | 176° |
| 2026-05-01 13:33 | 39.86429 | 116.62995 | 8867 ft | 277 kts | 176° |
| 2026-05-01 13:33 | 39.82580 | 116.63593 | 8890 ft | 276 kts | 176° |
| 2026-05-01 13:34 | 39.78739 | 116.64147 | 8890 ft | 276 kts | 179° |
| 2026-05-01 13:34 | 39.74938 | 116.63729 | 8891 ft | 274 kts | 195° |
| 2026-05-01 13:35 | 39.71361 | 116.61924 | 8887 ft | 273 kts | 211° |
| 2026-05-01 13:35 | 39.69774 | 116.60559 | 8883 ft | 271 kts | 218° |
| 2026-05-01 13:35 | 39.67158 | 116.57090 | 8890 ft | 272 kts | 233° |
| 2026-05-01 13:36 | 39.66127 | 116.54971 | 8886 ft | 272 kts | 241° |
| 2026-05-01 13:36 | 39.65348 | 116.52706 | 8887 ft | 274 kts | 249° |
| 2026-05-01 13:36 | 39.64596 | 116.47758 | 10267 ft | 283 kts | 264° |
| 2026-05-01 13:37 | 39.64475 | 116.45194 | 10838 ft | 297 kts | 265° |
| 2026-05-01 13:37 | 39.64323 | 116.42382 | 11310 ft | 315 kts | 264° |
| 2026-05-01 13:37 | 39.64142 | 116.39451 | 11818 ft | 332 kts | 264° |
| 2026-05-01 13:37 | 39.63942 | 116.36350 | 12314 ft | 349 kts | 265° |
| 2026-05-01 13:38 | 39.63515 | 116.29831 | 13439 ft | 380 kts | 264° |
| 2026-05-01 13:38 | 39.63289 | 116.26389 | 14266 ft | 387 kts | 264° |
| 2026-05-01 13:38 | 39.63062 | 116.22960 | 15371 ft | 388 kts | 264° |
| 2026-05-01 13:39 | 39.62831 | 116.19481 | 16511 ft | 387 kts | 264° |
| 2026-05-01 13:39 | 39.62590 | 116.15881 | 17512 ft | 391 kts | 264° |
| 2026-05-01 13:39 | 39.62357 | 116.12400 | 18295 ft | 396 kts | 264° |
| 2026-05-01 13:39 | 39.62114 | 116.08800 | 18548 ft | 401 kts | 265° |
| 2026-05-01 13:40 | 39.61870 | 116.05196 | 18563 ft | 399 kts | 264° |
| 2026-05-01 13:40 | 39.61621 | 116.01536 | 18581 ft | 397 kts | 265° |
| 2026-05-01 13:40 | 39.61380 | 115.98013 | 18567 ft | 396 kts | 265° |
| 2026-05-01 13:40 | 39.61134 | 115.94425 | 18555 ft | 397 kts | 265° |
| 2026-05-01 13:41 | 39.60889 | 115.90878 | 18565 ft | 399 kts | 265° |
| 2026-05-01 13:41 | 39.60772 | 115.87269 | 18565 ft | 398 kts | 271° |
| 2026-05-01 13:41 | 39.61064 | 115.83652 | 18561 ft | 397 kts | 279° |
| 2026-05-01 13:41 | 39.61767 | 115.80138 | 18574 ft | 399 kts | 288° |
| 2026-05-01 13:42 | 39.62862 | 115.76805 | 18575 ft | 401 kts | 296° |
| 2026-05-01 13:42 | 39.64185 | 115.73574 | 18579 ft | 402 kts | 297° |
| 2026-05-01 13:42 | 39.65516 | 115.70364 | 18586 ft | 401 kts | 297° |
| 2026-05-01 13:42 | 39.66843 | 115.67158 | 18597 ft | 402 kts | 297° |
| 2026-05-01 13:43 | 39.68153 | 115.63989 | 18599 ft | 402 kts | 297° |
| 2026-05-01 13:43 | 39.69501 | 115.60738 | 18613 ft | 402 kts | 297° |
| 2026-05-01 13:43 | 39.70841 | 115.57507 | 18608 ft | 402 kts | 297° |
| 2026-05-01 13:43 | 39.72144 | 115.54249 | 18613 ft | 402 kts | 293° |
| 2026-05-01 13:44 | 39.73096 | 115.50877 | 18610 ft | 401 kts | 285° |
| 2026-05-01 13:44 | 39.73645 | 115.47357 | 18608 ft | 399 kts | 277° |
| 2026-05-01 13:44 | 39.73777 | 115.43774 | 18614 ft | 398 kts | 268° |
| 2026-05-01 13:44 | 39.73478 | 115.40104 | 18623 ft | 399 kts | 260° |
| 2026-05-01 13:45 | 39.72769 | 115.36633 | 18631 ft | 400 kts | 251° |
| 2026-05-01 13:45 | 39.71653 | 115.33298 | 18637 ft | 399 kts | 244° |
| 2026-05-01 13:45 | 39.70357 | 115.30054 | 18888 ft | 413 kts | 243° |
| 2026-05-01 13:45 | 39.69046 | 115.26792 | 19956 ft | 411 kts | 243° |
| 2026-05-01 13:46 | 39.67737 | 115.23527 | 21059 ft | 408 kts | 244° |
| 2026-05-01 13:46 | 39.66434 | 115.20273 | 21874 ft | 411 kts | 244° |
| 2026-05-01 13:46 | 39.65091 | 115.16910 | 22517 ft | 419 kts | 244° |
| 2026-05-01 13:46 | 39.63727 | 115.13497 | 23209 ft | 425 kts | 245° |
| 2026-05-01 13:47 | 39.62365 | 115.10091 | 24065 ft | 425 kts | 245° |
| 2026-05-01 13:47 | 39.61020 | 115.06729 | 24935 ft | 425 kts | 245° |
| 2026-05-01 13:47 | 39.59667 | 115.03350 | 25800 ft | 425 kts | 245° |
| 2026-05-01 13:47 | 39.58316 | 114.99976 | 26585 ft | 425 kts | 245° |
| 2026-05-01 13:48 | 39.56923 | 114.96505 | 27379 ft | 426 kts | 245° |
| 2026-05-01 13:48 | 39.55549 | 114.93085 | 28132 ft | 427 kts | 245° |
| 2026-05-01 13:48 | 39.54174 | 114.89661 | 28862 ft | 428 kts | 245° |
| 2026-05-01 13:48 | 39.52803 | 114.86254 | 29648 ft | 427 kts | 246° |
| 2026-05-01 13:49 | 39.51455 | 114.82908 | 30566 ft | 424 kts | 246° |
| 2026-05-01 13:49 | 39.50100 | 114.79549 | 31504 ft | 419 kts | 245° |
| 2026-05-01 13:49 | 39.48754 | 114.76216 | 32347 ft | 415 kts | 246° |
| 2026-05-01 13:49 | 39.47411 | 114.72890 | 33039 ft | 414 kts | 246° |
| 2026-05-01 13:50 | 39.46081 | 114.69601 | 33750 ft | 412 kts | 246° |
| 2026-05-01 13:50 | 39.44750 | 114.66312 | 34579 ft | 408 kts | 246° |
| 2026-05-01 13:50 | 39.43452 | 114.63109 | 35492 ft | 401 kts | 246° |
| 2026-05-01 13:50 | 39.42163 | 114.59930 | 36043 ft | 401 kts | 245° |
| 2026-05-01 13:51 | 39.40863 | 114.56727 | 36056 ft | 402 kts | 245° |
| 2026-05-01 13:51 | 39.38291 | 114.50406 | 36047 ft | 397 kts | 245° |
| 2026-05-01 13:52 | 39.35719 | 114.44103 | 36038 ft | 399 kts | 246° |
| 2026-05-01 13:52 | 39.33131 | 114.37781 | 36026 ft | 399 kts | 245° |
| 2026-05-01 13:53 | 39.30528 | 114.31428 | 36046 ft | 402 kts | 245° |
| 2026-05-01 13:53 | 39.26556 | 114.21983 | 36042 ft | 401 kts | 239° |
| 2026-05-01 13:54 | 39.22856 | 114.16448 | 36043 ft | 412 kts | 226° |
| 2026-05-01 13:54 | 39.18119 | 114.12341 | 36043 ft | 420 kts | 213° |
| 2026-05-01 13:55 | 39.12441 | 114.09811 | 36040 ft | 435 kts | 203° |
| 2026-05-01 13:55 | 39.06619 | 114.07823 | 36035 ft | 434 kts | 202° |
| 2026-05-01 13:56 | 39.00739 | 114.05778 | 36030 ft | 436 kts | 202° |
| 2026-05-01 13:56 | 38.94927 | 114.03742 | 36028 ft | 433 kts | 202° |
| 2026-05-01 13:57 | 38.90093 | 114.02039 | 36024 ft | 434 kts | 202° |
| 2026-05-01 13:57 | 38.83383 | 113.99672 | 36026 ft | 434 kts | 203° |
| 2026-05-01 13:58 | 38.77532 | 113.97607 | 36036 ft | 435 kts | 202° |
| 2026-05-01 13:58 | 38.71675 | 113.95544 | 36030 ft | 436 kts | 203° |
| 2026-05-01 13:59 | 38.65860 | 113.93498 | 36024 ft | 434 kts | 202° |
| 2026-05-01 13:59 | 38.60049 | 113.91457 | 36001 ft | 433 kts | 202° |
| 2026-05-01 14:00 | 38.54244 | 113.89418 | 35992 ft | 432 kts | 202° |
| 2026-05-01 14:00 | 38.48401 | 113.87369 | 35979 ft | 434 kts | 202° |
| 2026-05-01 14:01 | 38.42625 | 113.85349 | 35976 ft | 432 kts | 202° |
| 2026-05-01 14:01 | 38.36846 | 113.83331 | 35981 ft | 431 kts | 202° |
| 2026-05-01 14:02 | 38.30990 | 113.81291 | 35987 ft | 435 kts | 202° |
| 2026-05-01 14:02 | 38.25174 | 113.79282 | 35990 ft | 433 kts | 201° |
| 2026-05-01 14:03 | 38.19377 | 113.77280 | 36000 ft | 434 kts | 202° |
| 2026-05-01 14:03 | 38.13559 | 113.75275 | 35994 ft | 434 kts | 201° |
| 2026-05-01 14:04 | 38.07727 | 113.73269 | 36006 ft | 433 kts | 201° |
| 2026-05-01 14:04 | 38.02900 | 113.71610 | 36010 ft | 432 kts | 201° |
| 2026-05-01 14:05 | 37.96096 | 113.69275 | 36006 ft | 433 kts | 201° |
| 2026-05-01 14:05 | 37.90297 | 113.67289 | 36019 ft | 434 kts | 201° |
| 2026-05-01 14:06 | 37.84453 | 113.65291 | 36027 ft | 432 kts | 201° |
| 2026-05-01 14:06 | 37.78644 | 113.63307 | 36020 ft | 434 kts | 201° |
| 2026-05-01 14:07 | 37.72811 | 113.61320 | 36040 ft | 432 kts | 201° |
| 2026-05-01 14:08 | 37.64073 | 113.58347 | 36034 ft | 432 kts | 201° |
| 2026-05-01 14:08 | 37.58264 | 113.56376 | 36044 ft | 431 kts | 201° |
| 2026-05-01 14:09 | 37.52474 | 113.54412 | 36051 ft | 433 kts | 201° |
| 2026-05-01 14:09 | 37.46682 | 113.52453 | 36061 ft | 431 kts | 201° |
| 2026-05-01 14:10 | 37.40888 | 113.50496 | 36058 ft | 431 kts | 201° |
| 2026-05-01 14:10 | 37.35112 | 113.48549 | 36063 ft | 430 kts | 201° |
| 2026-05-01 14:11 | 37.29323 | 113.46600 | 36063 ft | 431 kts | 201° |
| 2026-05-01 14:11 | 37.20672 | 113.43694 | 36060 ft | 429 kts | 201° |
| 2026-05-01 14:12 | 37.14881 | 113.41752 | 36056 ft | 429 kts | 201° |
| 2026-05-01 14:12 | 37.09106 | 113.39818 | 36068 ft | 429 kts | 201° |
| 2026-05-01 14:13 | 37.04279 | 113.38203 | 36064 ft | 429 kts | 200° |
| 2026-05-01 14:13 | 36.97560 | 113.35961 | 36059 ft | 426 kts | 201° |
| 2026-05-01 14:14 | 36.91781 | 113.34033 | 36067 ft | 428 kts | 200° |
| 2026-05-01 14:14 | 36.86395 | 113.32242 | 36078 ft | 426 kts | 200° |
| 2026-05-01 14:15 | 36.80869 | 113.30405 | 36072 ft | 427 kts | 200° |
| 2026-05-01 14:15 | 36.75263 | 113.28545 | 36078 ft | 428 kts | 200° |
| 2026-05-01 14:16 | 36.69547 | 113.26651 | 36073 ft | 428 kts | 200° |
| 2026-05-01 14:16 | 36.63786 | 113.24746 | 36069 ft | 428 kts | 200° |
| 2026-05-01 14:17 | 36.58009 | 113.22839 | 36066 ft | 427 kts | 200° |
| 2026-05-01 14:17 | 36.52252 | 113.20940 | 36063 ft | 427 kts | 200° |
| 2026-05-01 14:18 | 36.46491 | 113.19043 | 36052 ft | 426 kts | 200° |
| 2026-05-01 14:18 | 36.41709 | 113.17470 | 36052 ft | 428 kts | 200° |
| 2026-05-01 14:19 | 36.35018 | 113.15274 | 36054 ft | 427 kts | 200° |
| 2026-05-01 14:19 | 36.29263 | 113.13388 | 36055 ft | 425 kts | 200° |
| 2026-05-01 14:20 | 36.20829 | 113.10032 | 36062 ft | 425 kts | 207° |
| 2026-05-01 14:21 | 36.15410 | 113.07192 | 36056 ft | 421 kts | 207° |
| 2026-05-01 14:21 | 36.09989 | 113.04356 | 36062 ft | 421 kts | 207° |
| 2026-05-01 14:22 | 36.01900 | 113.00141 | 36069 ft | 420 kts | 207° |
| 2026-05-01 14:22 | 35.96492 | 112.97329 | 36057 ft | 422 kts | 207° |
| 2026-05-01 14:23 | 35.91111 | 112.94536 | 36059 ft | 421 kts | 207° |
| 2026-05-01 14:23 | 35.85698 | 112.91731 | 36069 ft | 423 kts | 207° |
| 2026-05-01 14:24 | 35.80396 | 112.88989 | 36066 ft | 420 kts | 207° |
| 2026-05-01 14:24 | 35.75002 | 112.86188 | 36064 ft | 425 kts | 207° |
| 2026-05-01 14:25 | 35.69581 | 112.83363 | 36065 ft | 420 kts | 207° |
| 2026-05-01 14:25 | 35.64164 | 112.80546 | 36064 ft | 424 kts | 207° |
| 2026-05-01 14:26 | 35.56003 | 112.76304 | 36057 ft | 424 kts | 207° |
| 2026-05-01 14:27 | 35.50624 | 112.73497 | 36062 ft | 423 kts | 207° |
| 2026-05-01 14:27 | 35.45209 | 112.70676 | 36058 ft | 424 kts | 207° |
| 2026-05-01 14:28 | 35.37061 | 112.66440 | 36056 ft | 425 kts | 207° |
| 2026-05-01 14:28 | 35.31601 | 112.63606 | 36053 ft | 426 kts | 207° |
| 2026-05-01 14:29 | 35.26146 | 112.60780 | 36052 ft | 425 kts | 207° |
| 2026-05-01 14:30 | 35.15218 | 112.55151 | 36053 ft | 426 kts | 207° |
| 2026-05-01 14:31 | 35.06806 | 112.51437 | 36044 ft | 430 kts | 201° |
| 2026-05-01 14:31 | 35.01080 | 112.49340 | 36049 ft | 432 kts | 201° |
| 2026-05-01 14:32 | 34.95304 | 112.47225 | 36042 ft | 431 kts | 201° |
| 2026-05-01 14:32 | 34.89571 | 112.45126 | 36041 ft | 431 kts | 201° |
| 2026-05-01 14:33 | 34.83817 | 112.43021 | 36048 ft | 429 kts | 201° |
| 2026-05-01 14:33 | 34.78072 | 112.40922 | 36053 ft | 433 kts | 201° |
| 2026-05-01 14:34 | 34.72084 | 112.39764 | 36039 ft | 439 kts | 185° |
| 2026-05-01 14:34 | 34.65899 | 112.40185 | 36048 ft | 447 kts | 181° |
| 2026-05-01 14:35 | 34.59723 | 112.40729 | 36041 ft | 443 kts | 181° |
| 2026-05-01 14:35 | 34.53576 | 112.41260 | 36039 ft | 446 kts | 181° |
| 2026-05-01 14:36 | 34.47401 | 112.41793 | 36039 ft | 444 kts | 181° |
| 2026-05-01 14:36 | 34.41194 | 112.42325 | 36035 ft | 446 kts | 181° |
| 2026-05-01 14:37 | 34.35023 | 112.42853 | 36029 ft | 445 kts | 181° |
| 2026-05-01 14:37 | 34.28833 | 112.43381 | 36033 ft | 447 kts | 181° |
| 2026-05-01 14:38 | 34.22630 | 112.43911 | 36038 ft | 446 kts | 181° |
| 2026-05-01 14:38 | 34.16386 | 112.44439 | 36042 ft | 456 kts | 181° |
| 2026-05-01 14:39 | 34.10056 | 112.44978 | 36033 ft | 453 kts | 181° |
| 2026-05-01 14:39 | 34.03755 | 112.45513 | 36033 ft | 454 kts | 181° |
| 2026-05-01 14:40 | 33.97435 | 112.46047 | 36023 ft | 456 kts | 181° |
| 2026-05-01 14:40 | 33.91112 | 112.46583 | 36026 ft | 456 kts | 181° |
| 2026-05-01 14:41 | 33.84841 | 112.47113 | 36037 ft | 456 kts | 181° |
| 2026-05-01 14:41 | 33.78590 | 112.47640 | 36026 ft | 457 kts | 181° |
| 2026-05-01 14:42 | 33.72258 | 112.48174 | 36022 ft | 455 kts | 181° |
| 2026-05-01 14:42 | 33.65952 | 112.48704 | 36026 ft | 456 kts | 181° |
| 2026-05-01 14:43 | 33.59617 | 112.49243 | 36014 ft | 455 kts | 181° |
| 2026-05-01 14:43 | 33.53260 | 112.49785 | 36012 ft | 457 kts | 181° |
| 2026-05-01 14:44 | 33.46924 | 112.50325 | 36008 ft | 458 kts | 181° |
| 2026-05-01 14:44 | 33.37374 | 112.51137 | 36004 ft | 457 kts | 181° |
| 2026-05-01 14:45 | 33.27796 | 112.51949 | 35998 ft | 457 kts | 182° |
| 2026-05-01 14:46 | 33.21476 | 112.52483 | 36000 ft | 458 kts | 181° |
| 2026-05-01 14:46 | 33.11894 | 112.53292 | 35998 ft | 459 kts | 182° |
| 2026-05-01 14:47 | 33.05541 | 112.53827 | 35995 ft | 461 kts | 181° |
| 2026-05-01 14:48 | 32.95941 | 112.54636 | 35994 ft | 459 kts | 182° |
| 2026-05-01 14:48 | 32.86631 | 112.53247 | 35999 ft | 446 kts | 201° |
| 2026-05-01 14:49 | 32.74690 | 112.49254 | 35994 ft | 444 kts | 200° |
| 2026-05-01 14:50 | 32.62658 | 112.45345 | 35996 ft | 447 kts | 200° |
| 2026-05-01 14:51 | 32.53608 | 112.42408 | 35993 ft | 447 kts | 200° |
| 2026-05-01 14:52 | 32.44526 | 112.39464 | 35987 ft | 450 kts | 200° |
| 2026-05-01 14:53 | 32.35480 | 112.36537 | 35987 ft | 450 kts | 200° |
| 2026-05-01 14:53 | 32.29458 | 112.34594 | 35991 ft | 448 kts | 200° |
| 2026-05-01 14:54 | 32.23601 | 112.32704 | 35989 ft | 450 kts | 200° |
| 2026-05-01 14:54 | 32.17632 | 112.30781 | 35979 ft | 452 kts | 200° |
| 2026-05-01 14:55 | 32.11583 | 112.28836 | 35977 ft | 450 kts | 200° |
| 2026-05-01 14:55 | 32.05438 | 112.27103 | 35984 ft | 453 kts | 195° |
| 2026-05-01 14:56 | 31.99229 | 112.25841 | 35975 ft | 454 kts | 195° |
| 2026-05-01 14:56 | 31.92963 | 112.24573 | 35974 ft | 454 kts | 195° |
| 2026-05-01 14:57 | 31.86859 | 112.23339 | 35981 ft | 453 kts | 195° |
| 2026-05-01 14:57 | 31.77459 | 112.21438 | 35976 ft | 454 kts | 195° |
| 2026-05-01 14:58 | 31.71230 | 112.20178 | 35976 ft | 457 kts | 195° |
| 2026-05-01 14:58 | 31.64990 | 112.18920 | 35972 ft | 456 kts | 195° |
| 2026-05-01 14:59 | 31.58707 | 112.17654 | 35969 ft | 458 kts | 195° |
| 2026-05-01 14:59 | 31.52395 | 112.16384 | 35970 ft | 456 kts | 195° |
| 2026-05-01 15:00 | 31.43044 | 112.14506 | 35967 ft | 456 kts | 195° |
| 2026-05-01 15:01 | 31.36779 | 112.13139 | 35968 ft | 457 kts | 197° |
| 2026-05-01 15:01 | 31.30554 | 112.11587 | 35966 ft | 455 kts | 197° |
| 2026-05-01 15:02 | 31.24349 | 112.10050 | 35960 ft | 457 kts | 197° |
| 2026-05-01 15:02 | 31.18120 | 112.08518 | 35961 ft | 457 kts | 197° |
| 2026-05-01 15:03 | 31.11906 | 112.06995 | 35973 ft | 456 kts | 197° |
| 2026-05-01 15:03 | 31.05648 | 112.05466 | 35976 ft | 456 kts | 197° |
| 2026-05-01 15:04 | 30.99422 | 112.03947 | 35973 ft | 458 kts | 197° |
| 2026-05-01 15:04 | 30.93154 | 112.02421 | 35966 ft | 459 kts | 197° |
| 2026-05-01 15:05 | 30.86899 | 112.00899 | 35972 ft | 460 kts | 197° |
| 2026-05-01 15:05 | 30.80629 | 111.99378 | 35964 ft | 459 kts | 197° |
| 2026-05-01 15:06 | 30.74367 | 111.97860 | 35962 ft | 462 kts | 197° |
| 2026-05-01 15:06 | 30.68070 | 111.96336 | 35962 ft | 460 kts | 197° |
| 2026-05-01 15:07 | 30.61782 | 111.94821 | 35940 ft | 464 kts | 197° |
| 2026-05-01 15:07 | 30.55468 | 111.93305 | 35934 ft | 464 kts | 197° |
| 2026-05-01 15:08 | 30.49154 | 111.91791 | 35938 ft | 465 kts | 197° |
| 2026-05-01 15:08 | 30.42773 | 111.90263 | 35932 ft | 466 kts | 197° |
| 2026-05-01 15:09 | 30.36431 | 111.88746 | 35930 ft | 465 kts | 197° |
| 2026-05-01 15:09 | 30.30042 | 111.87219 | 35931 ft | 467 kts | 197° |
| 2026-05-01 15:10 | 30.23685 | 111.85704 | 35931 ft | 466 kts | 196° |
| 2026-05-01 15:10 | 30.14081 | 111.83415 | 35932 ft | 470 kts | 196° |
| 2026-05-01 15:11 | 30.04450 | 111.81126 | 35932 ft | 470 kts | 196° |
| 2026-05-01 15:12 | 29.97995 | 111.79594 | 35933 ft | 473 kts | 196° |
| 2026-05-01 15:12 | 29.88442 | 111.77331 | 35933 ft | 472 kts | 196° |
| 2026-05-01 15:14 | 29.72415 | 111.73543 | 35932 ft | 471 kts | 196° |
| 2026-05-01 15:14 | 29.62753 | 111.71267 | 35929 ft | 470 kts | 196° |
| 2026-05-01 15:15 | 29.49912 | 111.68247 | 35923 ft | 471 kts | 196° |
| 2026-05-01 15:16 | 29.37046 | 111.65231 | 35911 ft | 472 kts | 195° |
| 2026-05-01 15:18 | 29.20448 | 111.64032 | 35909 ft | 480 kts | 187° |
| 2026-05-01 15:19 | 29.07140 | 111.63335 | 35906 ft | 479 kts | 187° |
| 2026-05-01 15:19 | 28.97141 | 111.62808 | 35918 ft | 479 kts | 187° |
| 2026-05-01 15:20 | 28.87144 | 111.62283 | 35930 ft | 479 kts | 187° |
| 2026-05-01 15:21 | 28.80617 | 111.61787 | 35934 ft | 476 kts | 191° |
| 2026-05-01 15:21 | 28.74015 | 111.61034 | 35934 ft | 477 kts | 190° |
| 2026-05-01 15:22 | 28.64076 | 111.59928 | 35940 ft | 478 kts | 190° |
| 2026-05-01 15:22 | 28.57452 | 111.59203 | 35942 ft | 477 kts | 190° |
| 2026-05-01 15:23 | 28.50866 | 111.58488 | 35940 ft | 476 kts | 190° |
| 2026-05-01 15:23 | 28.44219 | 111.57767 | 35949 ft | 479 kts | 190° |
| 2026-05-01 15:24 | 28.37609 | 111.57061 | 35968 ft | 479 kts | 190° |
| 2026-05-01 15:24 | 28.30977 | 111.56358 | 35979 ft | 479 kts | 190° |
| 2026-05-01 15:25 | 28.24322 | 111.55654 | 35980 ft | 479 kts | 190° |
| 2026-05-01 15:25 | 28.17662 | 111.54950 | 35993 ft | 480 kts | 190° |
| 2026-05-01 15:26 | 28.11034 | 111.54250 | 35995 ft | 480 kts | 190° |
| 2026-05-01 15:26 | 28.04346 | 111.53545 | 35994 ft | 480 kts | 190° |
| 2026-05-01 15:27 | 27.97744 | 111.52850 | 35999 ft | 480 kts | 190° |
| 2026-05-01 15:28 | 27.87751 | 111.51802 | 36001 ft | 478 kts | 190° |
| 2026-05-01 15:28 | 27.81106 | 111.51105 | 35996 ft | 478 kts | 190° |
| 2026-05-01 15:29 | 27.71118 | 111.50060 | 35987 ft | 478 kts | 190° |
| 2026-05-01 15:30 | 27.57842 | 111.48676 | 35993 ft | 476 kts | 191° |
| 2026-05-01 15:31 | 27.37960 | 111.46606 | 35974 ft | 479 kts | 191° |
| 2026-05-01 15:32 | 27.24767 | 111.45239 | 35965 ft | 475 kts | 191° |
| 2026-05-01 15:34 | 27.04925 | 111.43187 | 35962 ft | 476 kts | 191° |